createdAt,value
2022-12-31T00:01:58.507Z,81.18
2022-12-31T00:07:00.593Z,81.42
2022-12-31T00:12:02.574Z,80.50
2022-12-31T00:17:04.651Z,81.03
2022-12-31T00:22:06.568Z,81.33
2022-12-31T00:27:08.610Z,81.07
2022-12-31T00:32:10.603Z,81.09
2022-12-31T00:37:12.538Z,81.48
2022-12-31T00:42:14.480Z,81.21
2022-12-31T00:47:16.566Z,81.27
2022-12-31T00:52:18.589Z,80.99
2022-12-31T00:57:20.605Z,81.21
2022-12-31T01:02:22.718Z,81.47
2022-12-31T01:07:24.754Z,80.89
2022-12-31T01:12:26.822Z,81.07
2022-12-31T01:17:28.868Z,81.13
2022-12-31T01:22:30.846Z,80.78
2022-12-31T01:27:32.756Z,81.08
2022-12-31T01:32:34.908Z,80.99
2022-12-31T01:37:36.880Z,82.01
2022-12-31T01:42:38.875Z,81.74
2022-12-31T01:47:48.603Z,82.56
2022-12-31T01:52:54.354Z,82.77
2022-12-31T01:58:01.416Z,83.56
2022-12-31T02:08:22.451Z,85.05
2022-12-31T02:13:24.613Z,85.45
2022-12-31T02:18:50.286Z,85.12
2022-12-31T02:24:25.974Z,84.81
2022-12-31T02:29:49.650Z,85.32
2022-12-31T02:34:57.139Z,83.42
2022-12-31T02:40:00.698Z,84.41
2022-12-31T02:45:02.732Z,84.73
2022-12-31T02:50:21.842Z,84.39
2022-12-31T02:55:42.463Z,84.35
2022-12-31T03:01:10.393Z,83.88
2022-12-31T03:06:13.823Z,84.20
2022-12-31T03:11:35.764Z,83.72
2022-12-31T03:16:37.860Z,84.08
2022-12-31T03:21:58.385Z,83.78
2022-12-31T03:27:00.424Z,84.15
2022-12-31T03:32:02.628Z,84.13
2022-12-31T03:37:04.641Z,83.76
2022-12-31T03:42:06.993Z,83.64
2022-12-31T03:47:09.021Z,83.59
2022-12-31T03:52:11.084Z,83.50
2022-12-31T03:57:13.209Z,83.46
2022-12-31T04:02:16.267Z,83.46
2022-12-31T04:07:18.653Z,83.34
2022-12-31T04:12:20.672Z,83.82
2022-12-31T04:17:22.824Z,83.32
2022-12-31T04:22:25.114Z,83.25
2022-12-31T04:27:27.170Z,83.89
2022-12-31T04:32:29.280Z,84.53
2022-12-31T04:37:31.259Z,85.22
2022-12-31T04:42:33.325Z,86.27
2022-12-31T04:47:35.369Z,87.02
2022-12-31T04:52:42.719Z,86.93
2022-12-31T04:57:45.142Z,86.71
2022-12-31T05:02:47.339Z,86.02
2022-12-31T05:07:49.392Z,85.70
2022-12-31T05:12:51.321Z,85.27
2022-12-31T05:17:53.259Z,85.27
2022-12-31T05:22:55.676Z,85.44
2022-12-31T05:27:57.617Z,84.59
2022-12-31T05:32:59.635Z,85.05
2022-12-31T05:38:02.146Z,84.30
2022-12-31T05:43:03.977Z,84.46
2022-12-31T05:48:06.387Z,84.34
2022-12-31T05:53:08.382Z,84.64
2022-12-31T05:58:10.450Z,83.92
2022-12-31T06:03:12.760Z,84.60
2022-12-31T06:08:14.803Z,84.95
2022-12-31T06:13:16.858Z,84.22
2022-12-31T06:18:18.981Z,84.66
2022-12-31T06:23:20.979Z,83.86
2022-12-31T06:28:22.976Z,84.41
2022-12-31T06:33:25.123Z,84.37
2022-12-31T06:38:28.840Z,83.83
2022-12-31T06:43:30.944Z,83.58
2022-12-31T06:48:33.098Z,84.20
2022-12-31T06:53:35.215Z,84.21
2022-12-31T06:58:37.926Z,83.37
2022-12-31T07:04:07.298Z,83.53
2022-12-31T07:09:23.893Z,83.57
2022-12-31T07:14:44.144Z,83.92
2022-12-31T07:20:09.553Z,83.35
2022-12-31T07:25:17.147Z,83.66
2022-12-31T07:30:27.941Z,83.65
2022-12-31T07:35:35.041Z,84.15
2022-12-31T07:41:09.932Z,83.46
2022-12-31T07:46:25.220Z,83.83
2022-12-31T07:51:27.640Z,83.11
2022-12-31T07:56:30.240Z,83.11
2022-12-31T08:01:40.181Z,83.38
2022-12-31T08:06:54.236Z,83.26
2022-12-31T08:12:01.430Z,83.49
2022-12-31T08:17:03.771Z,83.54
2022-12-31T08:22:24.422Z,83.38
2022-12-31T08:28:00.611Z,83.40
2022-12-31T08:33:18.609Z,83.48
2022-12-31T08:38:26.578Z,83.04
2022-12-31T08:43:28.507Z,82.77
2022-12-31T08:48:39.057Z,82.79
2022-12-31T08:53:41.466Z,82.83
2022-12-31T08:59:15.560Z,83.00
2022-12-31T09:05:07.320Z,83.16
2022-12-31T09:10:24.515Z,83.14
2022-12-31T09:15:38.540Z,82.57
2022-12-31T09:20:43.338Z,82.35
2022-12-31T09:26:07.501Z,82.47
2022-12-31T09:31:16.873Z,82.22
2022-12-31T09:36:50.033Z,82.63
2022-12-31T09:42:00.936Z,82.10
2022-12-31T09:47:42.295Z,82.12
2022-12-31T09:52:57.060Z,82.00
2022-12-31T09:58:36.885Z,82.54
2022-12-31T10:03:56.889Z,82.31
2022-12-31T10:09:10.987Z,82.31
2022-12-31T10:14:47.747Z,82.86
2022-12-31T10:20:21.000Z,82.30
2022-12-31T10:25:39.177Z,82.09
2022-12-31T10:30:54.423Z,81.72
2022-12-31T10:36:09.398Z,82.30
2022-12-31T10:41:43.711Z,82.45
2022-12-31T10:47:01.191Z,83.81
2022-12-31T10:52:24.375Z,84.34
2022-12-31T10:58:03.963Z,84.27
2022-12-31T11:03:28.822Z,84.71
2022-12-31T11:09:09.094Z,84.64
2022-12-31T11:14:50.700Z,84.95
2022-12-31T11:20:38.056Z,84.90
2022-12-31T11:25:52.111Z,84.43
2022-12-31T11:31:06.550Z,84.71
2022-12-31T11:36:37.592Z,84.24
2022-12-31T11:42:03.611Z,84.27
2022-12-31T11:47:26.608Z,84.72
2022-12-31T11:52:52.346Z,83.95
2022-12-31T11:57:55.508Z,83.60
2022-12-31T12:03:03.944Z,83.22
2022-12-31T12:08:06.536Z,83.27
2022-12-31T12:13:24.249Z,82.39
2022-12-31T12:18:41.113Z,82.07
2022-12-31T12:23:56.919Z,81.49
2022-12-31T12:29:26.617Z,80.95
2022-12-31T12:34:46.063Z,80.77
2022-12-31T12:40:02.955Z,81.06
2022-12-31T12:45:16.229Z,80.75
2022-12-31T12:50:23.906Z,79.95
2022-12-31T12:55:58.959Z,78.85
2022-12-31T13:01:31.580Z,79.34
2022-12-31T13:06:58.580Z,78.56
2022-12-31T13:12:07.557Z,79.45
2022-12-31T13:17:33.164Z,79.31
2022-12-31T13:22:40.755Z,78.52
2022-12-31T13:27:49.304Z,79.76
2022-12-31T13:33:16.377Z,78.86
2022-12-31T13:38:34.088Z,79.03
2022-12-31T13:44:11.373Z,79.23
2022-12-31T13:49:19.392Z,79.61
2022-12-31T13:54:39.886Z,79.45
2022-12-31T13:59:47.068Z,79.62
2022-12-31T14:04:56.930Z,80.02
2022-12-31T14:09:59.395Z,79.51
2022-12-31T14:15:46.068Z,79.84
2022-12-31T14:20:55.035Z,79.50
2022-12-31T14:26:03.849Z,79.83
2022-12-31T14:31:19.996Z,80.15
2022-12-31T14:36:52.768Z,79.81
2022-12-31T14:42:29.558Z,79.87
2022-12-31T14:48:07.094Z,79.87
2022-12-31T14:53:26.640Z,79.55
2022-12-31T14:58:44.799Z,79.98
2022-12-31T15:03:47.094Z,80.04
2022-12-31T15:09:26.558Z,80.43
2022-12-31T15:14:51.318Z,79.84
2022-12-31T15:20:23.973Z,79.57
2022-12-31T15:25:40.508Z,79.84
2022-12-31T15:30:49.069Z,80.26
2022-12-31T15:35:54.999Z,79.81
2022-12-31T15:40:58.355Z,80.27
2022-12-31T15:46:02.151Z,79.80
2022-12-31T15:51:05.698Z,80.20
2022-12-31T15:56:17.332Z,79.86
2022-12-31T16:01:25.286Z,80.38
2022-12-31T16:06:30.740Z,79.85
2022-12-31T16:11:37.610Z,79.72
2022-12-31T16:16:39.654Z,80.40
2022-12-31T16:21:46.387Z,80.49
2022-12-31T16:26:52.027Z,80.87
2022-12-31T16:31:54.871Z,80.33
2022-12-31T16:37:04.716Z,80.72
2022-12-31T16:42:20.323Z,80.18
2022-12-31T16:47:36.104Z,79.50
2022-12-31T16:52:41.251Z,79.78
2022-12-31T16:57:46.682Z,80.23
2022-12-31T17:02:53.515Z,80.72
2022-12-31T17:07:56.011Z,80.18
2022-12-31T17:13:27.743Z,80.51
2022-12-31T17:18:25.931Z,81.02
2022-12-31T17:23:31.813Z,80.66
2022-12-31T17:28:45.274Z,80.40
2022-12-31T17:33:47.791Z,80.90
2022-12-31T17:38:50.780Z,80.25
2022-12-31T17:43:57.205Z,80.34
2022-12-31T17:49:03.977Z,80.46
2022-12-31T17:54:16.345Z,80.64
2022-12-31T17:59:24.149Z,79.94
2022-12-31T18:04:27.107Z,79.65
2022-12-31T18:09:29.400Z,80.01
2022-12-31T18:14:31.781Z,80.10
2022-12-31T18:24:55.871Z,80.46
2022-12-31T18:30:04.119Z,79.96
2022-12-31T18:35:33.277Z,80.18
2022-12-31T18:40:36.612Z,80.71
2022-12-31T18:45:38.758Z,80.48
2022-12-31T18:50:41.678Z,80.47
2022-12-31T18:55:55.805Z,80.77
2022-12-31T19:00:58.081Z,80.87
2022-12-31T19:06:00.298Z,80.76
2022-12-31T19:11:02.598Z,80.82
2022-12-31T19:16:04.923Z,80.86
2022-12-31T19:21:07.302Z,80.63
2022-12-31T19:26:15.401Z,81.30
2022-12-31T19:31:18.448Z,80.32
2022-12-31T19:36:21.065Z,81.34
2022-12-31T19:41:23.176Z,80.98
2022-12-31T19:46:25.560Z,80.37
2022-12-31T19:51:27.619Z,80.94
2022-12-31T19:56:29.750Z,80.69
2022-12-31T20:01:32.081Z,80.38
2022-12-31T20:06:34.326Z,80.71
2022-12-31T20:11:36.422Z,80.59
2022-12-31T20:16:38.517Z,80.66
2022-12-31T20:21:42.256Z,80.02
2022-12-31T20:26:44.324Z,80.49
2022-12-31T20:31:46.528Z,80.21
2022-12-31T20:36:48.881Z,79.63
2022-12-31T20:41:51.099Z,80.23
2022-12-31T20:46:53.142Z,80.24
2022-12-31T20:51:55.187Z,80.04
2022-12-31T20:56:57.160Z,80.02
2022-12-31T21:07:21.253Z,79.89
2022-12-31T21:12:41.372Z,79.63
2022-12-31T21:17:43.455Z,79.75
2022-12-31T21:22:45.581Z,80.03
2022-12-31T21:27:47.753Z,80.12
2022-12-31T21:32:49.897Z,80.29
2022-12-31T21:37:58.480Z,80.45
2022-12-31T21:43:03.092Z,80.08
2022-12-31T21:48:22.223Z,79.73
2022-12-31T21:53:32.126Z,79.61
2022-12-31T21:58:42.170Z,79.86
2022-12-31T22:03:44.790Z,79.90
2022-12-31T22:08:55.019Z,79.83
2022-12-31T22:13:57.853Z,80.11
2022-12-31T22:19:00.063Z,80.14
2022-12-31T22:24:03.440Z,79.65
2022-12-31T22:29:05.461Z,79.53
2022-12-31T22:34:07.506Z,80.41
2022-12-31T22:39:14.595Z,80.14
2022-12-31T22:44:36.549Z,80.29
2022-12-31T22:49:38.420Z,79.56
2022-12-31T22:54:40.512Z,79.86
2022-12-31T22:59:42.610Z,80.43
2022-12-31T23:04:44.701Z,79.75
2022-12-31T23:10:05.495Z,80.08
2022-12-31T23:15:28.911Z,80.22
2022-12-31T23:20:49.186Z,80.21
2022-12-31T23:25:52.754Z,80.33
2022-12-31T23:30:54.786Z,80.39
2022-12-31T23:36:07.191Z,80.19
2022-12-31T23:41:22.313Z,79.78
2022-12-31T23:46:24.832Z,80.10
2022-12-31T23:51:26.961Z,79.62
2022-12-31T23:56:29.006Z,79.47
